Terminal Aerodrome Forecast
Issued by NWS

Home | Current Version | Previous Version | Text Only | Print | Product List | Glossary On
Versions: 1 2 3 4 5 6 7 8 9 10 11 12 13
656
FTAK31 PAJN 220525
TAFAWG
TAF
PAWG 220525Z 2206/2306 12005KT P6SM BKN080
     FM221600 25003KT P6SM -SN BKN060
     FM222300 17003KT 4SM -SN BR SCT015 BKN020
     FM230400 12008KT 3SM -SNRA BR BKN015 OVC025
      AMD LTD TO CLD VIS AND WIND 2206/2215=

USA.gov is the U.S. government's official web portal to all federal, state and local government web resources and services.